createdAt,value
2022-08-27T00:01:33.401Z,101009.25
2022-08-27T00:07:37.148Z,100990.28
2022-08-27T00:13:41.058Z,100997.16
2022-08-27T00:19:45.973Z,100991.75
2022-08-27T00:25:49.520Z,100981.09
2022-08-27T00:31:54.134Z,100980.66
2022-08-27T00:37:59.189Z,100985.06
2022-08-27T00:44:03.499Z,100986.97
2022-08-27T00:50:12.347Z,100985.22
2022-08-27T00:56:21.413Z,100990.63
2022-08-27T01:02:29.450Z,100986.22
2022-08-27T01:08:37.995Z,100987.25
2022-08-27T01:14:45.769Z,100986.38
2022-08-27T01:20:56.502Z,100990.34
2022-08-27T01:27:04.032Z,100988.59
2022-08-27T01:33:14.669Z,100986.88
2022-08-27T01:39:18.181Z,100987.19
2022-08-27T01:45:27.560Z,100995.84
2022-08-27T01:51:31.096Z,100993.75
2022-08-27T01:57:35.103Z,100993.94
2022-08-27T02:03:41.603Z,100994.63
2022-08-27T02:09:45.416Z,100987.19
2022-08-27T02:15:48.971Z,100984.72
2022-08-27T02:21:54.366Z,100984.84
2022-08-27T02:28:00.351Z,100989.25
2022-08-27T02:34:04.265Z,100986.75
2022-08-27T02:40:11.275Z,100989.28
2022-08-27T02:46:15.276Z,101002.28
2022-08-27T02:52:24.976Z,100999.53
2022-08-27T02:58:30.209Z,101005.09
2022-08-27T03:04:33.814Z,100999.09
2022-08-27T03:10:37.423Z,101001.91
2022-08-27T03:16:42.340Z,101003.59
2022-08-27T03:22:46.172Z,100987.66
2022-08-27T03:28:49.433Z,100998.03
2022-08-27T03:34:54.612Z,100982.28
2022-08-27T03:40:58.329Z,100981.41
2022-08-27T03:47:02.058Z,100976.72
2022-08-27T03:53:07.118Z,100977.44
2022-08-27T03:59:10.627Z,100991.31
2022-08-27T04:05:15.366Z,100983.56
2022-08-27T04:11:21.692Z,100972.63
2022-08-27T04:17:25.203Z,100969.44
2022-08-27T04:23:28.732Z,100970.47
2022-08-27T04:29:33.677Z,100961.69
2022-08-27T04:35:37.682Z,100953.81
2022-08-27T04:41:41.658Z,100955.72
2022-08-27T04:47:46.570Z,100950.00
2022-08-27T04:53:51.041Z,100958.03
2022-08-27T04:59:54.977Z,100952.34
2022-08-27T05:06:03.331Z,100949.25
2022-08-27T05:12:08.117Z,100942.56
2022-08-27T05:18:11.933Z,100950.72
2022-08-27T05:24:18.175Z,100950.13
2022-08-27T05:30:21.936Z,100948.97
2022-08-27T05:36:27.450Z,100947.09
2022-08-27T05:42:32.573Z,100946.63
2022-08-27T05:48:37.286Z,100953.38
2022-08-27T05:54:41.205Z,100964.19
2022-08-27T06:01:06.989Z,100956.25
2022-08-27T06:07:13.069Z,100948.22
2022-08-27T06:13:16.665Z,100950.41
2022-08-27T06:19:21.656Z,100954.50
2022-08-27T06:25:25.185Z,100938.25
2022-08-27T06:31:28.944Z,100945.09
2022-08-27T06:37:33.983Z,59315.84
2022-08-27T06:43:38.668Z,59315.84
2022-08-27T06:49:43.904Z,100946.91
2022-08-27T06:55:51.489Z,100948.50
2022-08-27T07:01:55.509Z,100947.34
2022-08-27T07:07:59.309Z,100951.41
2022-08-27T07:14:04.041Z,100948.16
2022-08-27T07:20:08.905Z,100948.47
2022-08-27T07:26:14.457Z,100947.28
2022-08-27T07:32:19.839Z,100946.81
2022-08-27T07:38:23.365Z,100939.94
2022-08-27T07:44:30.970Z,59315.84
2022-08-27T07:50:39.313Z,59315.84
2022-08-27T07:56:44.279Z,100940.34
2022-08-27T08:02:59.351Z,100942.03
2022-08-27T08:09:04.598Z,100946.78
2022-08-27T08:15:12.016Z,100944.59
2022-08-27T08:21:16.033Z,100958.16
2022-08-27T08:27:21.354Z,100971.06
2022-08-27T08:33:25.391Z,100967.22
2022-08-27T08:39:29.258Z,100978.63
2022-08-27T08:45:37.401Z,100980.03
2022-08-27T08:51:43.101Z,100982.66
2022-08-27T08:57:51.399Z,100981.63
2022-08-27T09:03:58.642Z,100984.06
2022-08-27T09:10:12.022Z,100978.34
2022-08-27T09:16:15.680Z,100973.50
2022-08-27T09:22:25.032Z,100977.00
2022-08-27T09:28:48.338Z,100981.38
2022-08-27T09:42:05.553Z,100978.50
2022-08-27T09:48:15.052Z,100980.16
2022-08-27T09:54:48.664Z,100974.38
2022-08-27T10:01:02.571Z,100982.16
2022-08-27T10:07:22.110Z,100984.94
2022-08-27T10:13:32.181Z,100969.44
2022-08-27T10:19:47.571Z,100970.47
2022-08-27T10:25:59.061Z,100975.72
2022-08-27T10:32:13.344Z,100974.69
2022-08-27T10:38:25.989Z,100978.34
2022-08-27T10:44:48.114Z,100985.69
2022-08-27T10:50:55.754Z,100986.56
2022-08-27T10:57:26.563Z,100990.06
2022-08-27T11:03:37.091Z,100994.03
2022-08-27T11:09:56.654Z,101001.91
2022-08-27T11:16:07.946Z,100997.03
2022-08-27T11:22:23.724Z,100989.56
2022-08-27T11:28:37.535Z,100998.63
2022-08-27T11:34:49.449Z,100997.56
2022-08-27T11:41:11.432Z,101000.94
2022-08-27T11:47:20.467Z,101003.41
2022-08-27T11:53:31.377Z,101003.78
2022-08-27T11:59:35.601Z,100993.50
2022-08-27T12:05:45.675Z,100986.09
2022-08-27T12:11:59.816Z,100981.28
2022-08-27T12:18:15.053Z,100983.44
2022-08-27T12:24:39.307Z,100981.38
2022-08-27T12:30:52.099Z,100983.03
2022-08-27T12:36:56.837Z,100974.38
2022-08-27T12:43:14.049Z,100980.53
2022-08-27T12:49:38.404Z,100984.78
2022-08-27T12:55:55.289Z,100981.66
2022-08-27T13:02:14.272Z,100970.09
2022-08-27T13:08:25.948Z,100961.72
2022-08-27T13:14:36.940Z,100969.97
2022-08-27T13:20:41.697Z,100965.81
2022-08-27T13:26:58.454Z,100964.31
2022-08-27T13:33:03.575Z,100957.16
2022-08-27T13:39:08.541Z,100950.91
2022-08-27T13:45:14.038Z,59315.84
2022-08-27T13:51:24.223Z,59315.84
2022-08-27T13:57:31.422Z,59315.84
2022-08-27T14:03:47.320Z,59315.84
2022-08-27T14:09:57.309Z,59315.84
2022-08-27T14:16:01.239Z,59315.84
2022-08-27T14:22:06.733Z,59315.84
2022-08-27T14:28:10.429Z,59315.84
2022-08-27T14:34:14.714Z,59315.84
2022-08-27T14:40:19.977Z,59315.84
2022-08-27T14:46:29.287Z,59315.84
2022-08-27T14:52:32.877Z,100964.25
2022-08-27T14:58:37.865Z,100964.25
2022-08-27T15:04:42.441Z,100960.94
2022-08-27T15:10:51.888Z,100965.66
2022-08-27T15:16:57.051Z,100950.66
2022-08-27T15:23:01.150Z,100956.41
2022-08-27T15:29:06.739Z,100957.25
2022-08-27T15:35:14.730Z,100963.91
2022-08-27T15:41:18.362Z,100962.69
2022-08-27T15:47:21.957Z,100962.69
2022-08-27T15:53:27.060Z,100967.72
2022-08-27T16:10:02.185Z,100971.03
2022-08-27T16:19:41.193Z,100961.47
2022-08-27T16:24:49.608Z,100963.91
2022-08-27T16:27:56.133Z,100973.69
2022-08-27T16:31:01.967Z,100976.41
2022-08-27T16:34:12.497Z,100971.53
2022-08-27T16:37:18.067Z,100969.69
2022-08-27T16:40:26.952Z,100977.00
2022-08-27T16:43:32.791Z,100972.78
2022-08-27T16:46:38.865Z,100977.16
2022-08-27T16:49:56.594Z,100986.78
2022-08-27T16:53:02.708Z,100984.47
2022-08-27T16:56:11.185Z,100984.22
2022-08-27T16:59:19.350Z,100988.44
2022-08-27T17:02:30.843Z,100992.09
2022-08-27T17:05:36.777Z,100989.69
2022-08-27T17:08:47.757Z,100980.81
2022-08-27T17:11:57.698Z,100988.63
2022-08-27T17:15:03.092Z,100989.69
2022-08-27T17:18:09.187Z,100992.09
2022-08-27T17:21:17.400Z,100992.91
2022-08-27T17:24:23.194Z,101006.78
2022-08-27T17:27:31.198Z,100999.59
2022-08-27T17:30:37.118Z,101002.41
2022-08-27T17:33:46.095Z,100999.28
2022-08-27T17:36:52.172Z,101014.25
2022-08-27T17:39:57.616Z,101023.25
2022-08-27T17:43:05.980Z,101033.16
2022-08-27T17:46:13.837Z,101020.16
2022-08-27T17:49:19.901Z,101042.22
2022-08-27T17:52:25.954Z,101037.34
2022-08-27T17:55:31.899Z,101042.22
2022-08-27T17:58:41.073Z,101045.31
2022-08-27T18:01:46.823Z,101046.06
2022-08-27T18:04:52.377Z,101050.66
2022-08-27T18:07:58.852Z,101046.47
2022-08-27T18:11:04.230Z,101064.94
2022-08-27T18:14:12.673Z,101058.88
2022-08-27T18:17:23.561Z,101067.22
2022-08-27T18:20:31.528Z,101055.00
2022-08-27T18:23:37.046Z,101059.03
2022-08-27T18:26:42.758Z,101067.19
2022-08-27T18:29:50.778Z,101063.44
2022-08-27T18:33:02.576Z,101068.31
2022-08-27T18:36:09.190Z,101069.34
2022-08-27T18:39:15.020Z,101069.03
2022-08-27T18:42:21.279Z,101071.16
2022-08-27T18:45:33.375Z,101058.81
2022-08-27T18:48:39.538Z,101077.22
2022-08-27T18:51:52.558Z,101070.47
2022-08-27T18:54:58.180Z,101071.25
2022-08-27T18:58:05.589Z,101077.13
2022-08-27T19:01:16.777Z,101076.44
2022-08-27T19:04:22.350Z,101081.53
2022-08-27T19:07:29.805Z,101082.69
2022-08-27T19:10:35.569Z,101081.28
2022-08-27T19:13:40.971Z,101090.03
2022-08-27T19:16:56.098Z,101088.28
2022-08-27T19:20:03.215Z,101086.44
2022-08-27T19:23:09.081Z,101094.25
2022-08-27T19:26:21.029Z,101093.25
2022-08-27T19:29:26.736Z,101088.03
2022-08-27T19:32:34.778Z,101080.16
2022-08-27T19:35:43.746Z,101086.59
2022-08-27T19:38:52.003Z,101086.28
2022-08-27T19:42:00.593Z,101082.06
2022-08-27T19:45:06.619Z,101079.91
2022-08-27T19:48:16.732Z,101085.13
2022-08-27T19:51:22.833Z,101082.13
2022-08-27T19:54:32.706Z,101075.75
2022-08-27T19:57:39.456Z,101083.94
2022-08-27T20:00:46.186Z,101077.59
2022-08-27T20:03:56.808Z,101072.75
2022-08-27T20:07:09.358Z,101065.50
2022-08-27T20:10:16.297Z,101072.09
2022-08-27T20:13:22.321Z,101071.97
2022-08-27T20:16:27.849Z,101062.72
2022-08-27T20:19:36.556Z,101066.47
2022-08-27T20:22:42.601Z,101068.38
2022-08-27T20:25:48.370Z,101069.41
2022-08-27T20:28:54.683Z,101067.66
2022-08-27T20:32:02.851Z,101068.22
2022-08-27T20:35:14.389Z,101064.28
2022-08-27T20:38:21.881Z,101069.47
2022-08-27T20:41:27.248Z,101066.75
2022-08-27T20:44:33.585Z,101063.19
2022-08-27T20:47:39.042Z,101056.81
2022-08-27T20:50:47.289Z,101064.06
2022-08-27T20:53:53.623Z,101068.97
2022-08-27T20:56:59.295Z,101071.16
2022-08-27T21:00:17.037Z,101071.91
2022-08-27T21:03:23.029Z,101071.75
2022-08-27T21:06:33.391Z,101072.63
2022-08-27T21:09:41.690Z,101070.94
2022-08-27T21:13:04.831Z,101069.69
2022-08-27T21:16:12.029Z,101063.34
2022-08-27T21:19:17.354Z,101060.84
2022-08-27T21:22:26.808Z,101054.84
2022-08-27T21:25:32.442Z,101065.81
2022-08-27T21:28:38.069Z,101064.63
2022-08-27T21:31:43.736Z,101062.31
2022-08-27T21:34:49.552Z,101061.84
2022-08-27T21:37:57.728Z,101059.97
2022-08-27T21:41:03.603Z,101057.53
2022-08-27T21:44:09.049Z,101052.72
2022-08-27T21:47:14.704Z,101058.34
2022-08-27T21:50:20.297Z,101065.22
2022-08-27T21:53:30.309Z,101079.09
2022-08-27T21:56:35.621Z,101074.53
2022-08-27T21:59:45.566Z,101072.31
2022-08-27T22:02:50.982Z,101069.69
2022-08-27T22:05:56.773Z,101063.47
2022-08-27T22:09:04.702Z,101062.69
2022-08-27T22:12:10.889Z,101069.16
2022-08-27T22:15:16.373Z,101081.13
2022-08-27T22:18:23.096Z,101087.34
2022-08-27T22:21:29.771Z,101080.50
2022-08-27T22:24:38.013Z,101089.25
2022-08-27T22:27:43.339Z,101077.38
2022-08-27T22:30:49.058Z,101076.25
2022-08-27T22:33:54.517Z,101074.91
2022-08-27T22:37:00.132Z,101076.25
2022-08-27T22:40:19.539Z,101077.22
2022-08-27T22:43:26.029Z,101077.38
2022-08-27T22:46:31.400Z,101084.31
2022-08-27T22:49:37.262Z,101079.03
2022-08-27T22:52:43.211Z,101074.75
2022-08-27T22:55:51.521Z,101069.91
2022-08-27T22:58:56.831Z,101081.09
2022-08-27T23:02:04.731Z,101073.78
2022-08-27T23:05:11.062Z,101073.06
2022-08-27T23:08:17.188Z,101068.44
2022-08-27T23:11:25.139Z,101067.88
2022-08-27T23:14:33.424Z,101064.50
2022-08-27T23:17:38.961Z,101069.69
2022-08-27T23:20:44.681Z,101056.69
2022-08-27T23:23:50.000Z,101063.59
2022-08-27T23:27:10.717Z,101063.34
2022-08-27T23:30:17.408Z,101059.94
2022-08-27T23:33:23.088Z,101060.84
2022-08-27T23:36:29.472Z,101054.47
2022-08-27T23:39:35.170Z,101064.38
2022-08-27T23:42:46.178Z,101059.66
2022-08-27T23:45:52.164Z,101061.16
2022-08-27T23:48:57.765Z,101066.13
2022-08-27T23:52:03.361Z,101063.94
2022-08-27T23:55:10.661Z,101053.25
2022-08-27T23:58:18.867Z,101055.63
